createdAt,value
2017-01-09T00:00:27.137Z,923.1
2017-01-09T00:00:55.228Z,923.11
2017-01-09T00:01:23.444Z,923.13
2017-01-09T00:01:51.557Z,923.09
2017-01-09T00:02:19.738Z,923.07
2017-01-09T00:02:47.923Z,923.11
2017-01-09T00:03:16.065Z,923.08
2017-01-09T00:04:27.228Z,923.11
2017-01-09T00:04:55.387Z,923.14
2017-01-09T00:05:23.626Z,923.12
2017-01-09T00:05:51.899Z,923.17
2017-01-09T00:06:20.241Z,923.14
2017-01-09T00:06:48.417Z,923.11
2017-01-09T00:07:16.512Z,923.2
2017-01-09T00:07:44.641Z,923.21
2017-01-09T00:08:12.981Z,923.22
2017-01-09T00:08:41.359Z,923.22
2017-01-09T00:09:09.315Z,923.22
2017-01-09T00:10:20.613Z,923.23
2017-01-09T00:10:48.782Z,923.26
2017-01-09T00:11:17.020Z,923.3
2017-01-09T00:11:45.227Z,923.3
2017-01-09T00:12:13.390Z,923.31
2017-01-09T00:12:41.682Z,923.31
2017-01-09T00:13:09.781Z,923.29
2017-01-09T00:13:37.908Z,923.31
2017-01-09T00:14:06.056Z,923.29
2017-01-09T00:14:34.239Z,923.32
2017-01-09T00:15:02.478Z,923.3
2017-01-09T00:16:13.679Z,923.3
2017-01-09T00:16:41.997Z,923.3
2017-01-09T00:17:10.233Z,923.32
2017-01-09T00:17:38.508Z,923.31
2017-01-09T00:18:06.760Z,923.31
2017-01-09T00:18:35.030Z,923.35
2017-01-09T00:19:03.216Z,923.32
2017-01-09T00:19:31.328Z,923.31
2017-01-09T00:19:59.376Z,923.34
2017-01-09T00:20:27.556Z,923.35
2017-01-09T00:20:55.705Z,923.34
2017-01-09T00:22:07.097Z,923.31
2017-01-09T00:22:35.419Z,923.31
2017-01-09T00:23:03.651Z,923.32
2017-01-09T00:23:31.928Z,923.31
2017-01-09T00:24:00.274Z,923.29
2017-01-09T00:24:28.453Z,923.29
2017-01-09T00:24:56.734Z,923.28
2017-01-09T00:25:24.840Z,923.28
2017-01-09T00:25:53.030Z,923.26
2017-01-09T00:26:21.227Z,923.25
2017-01-09T00:26:49.290Z,923.23
2017-01-09T00:28:00.491Z,923.25
2017-01-09T00:28:28.720Z,923.24
2017-01-09T00:28:56.951Z,923.24
2017-01-09T00:29:25.146Z,923.26
2017-01-09T00:29:53.215Z,923.28
2017-01-09T00:30:21.413Z,923.21
2017-01-09T00:30:49.510Z,923.23
2017-01-09T00:31:17.531Z,923.25
2017-01-09T00:31:45.679Z,923.28
2017-01-09T00:32:13.863Z,923.24
2017-01-09T00:32:41.916Z,923.25
2017-01-09T00:33:53.214Z,923.27
2017-01-09T00:34:21.432Z,923.3
2017-01-09T00:34:49.571Z,923.29
2017-01-09T00:35:17.849Z,923.29
2017-01-09T00:35:46.105Z,923.31
2017-01-09T00:36:14.378Z,923.31
2017-01-09T00:36:42.572Z,923.31
2017-01-09T00:37:10.678Z,923.31
2017-01-09T00:37:38.826Z,923.31
2017-01-09T00:38:06.927Z,923.29
2017-01-09T00:38:35.258Z,923.32
2017-01-09T00:39:46.460Z,923.28
2017-01-09T00:40:14.598Z,923.31
2017-01-09T00:40:42.832Z,923.29
2017-01-09T00:41:11.018Z,923.27
2017-01-09T00:41:39.354Z,923.27
2017-01-09T00:42:07.530Z,923.26
2017-01-09T00:42:35.722Z,923.25
2017-01-09T00:43:03.740Z,923.27
2017-01-09T00:43:32.070Z,923.25
2017-01-09T00:44:00.345Z,923.23
2017-01-09T00:44:28.675Z,923.21
2017-01-09T00:45:40.069Z,923.21
2017-01-09T00:46:08.295Z,923.22
2017-01-09T00:46:36.246Z,923.2
2017-01-09T00:47:04.235Z,923.19
2017-01-09T00:47:32.392Z,923.19
2017-01-09T00:48:00.669Z,923.21
2017-01-09T00:48:28.846Z,923.21
2017-01-09T00:48:57.136Z,923.25
2017-01-09T00:49:25.377Z,923.21
2017-01-09T00:49:53.564Z,923.19
2017-01-09T00:50:21.896Z,923.19
2017-01-09T00:51:33.094Z,923.19
2017-01-09T00:52:01.218Z,923.18
2017-01-09T00:52:29.449Z,923.16
2017-01-09T00:52:57.720Z,923.16
2017-01-09T00:53:25.870Z,923.17
2017-01-09T00:53:54.143Z,923.17
2017-01-09T00:54:22.337Z,923.18
2017-01-09T00:54:50.445Z,923.17
2017-01-09T00:55:18.687Z,923.17
2017-01-09T00:55:46.868Z,923.2
2017-01-09T00:56:15.102Z,923.21
2017-01-09T00:57:26.398Z,923.21
2017-01-09T00:57:54.617Z,923.24
2017-01-09T00:58:22.666Z,923.22
2017-01-09T00:58:50.752Z,923.24
2017-01-09T00:59:18.998Z,923.22
2017-01-09T00:59:47.271Z,923.22
2017-01-09T01:00:15.274Z,923.24
2017-01-09T01:00:43.288Z,923.25
2017-01-09T01:01:11.439Z,923.28
2017-01-09T01:01:39.519Z,923.28
2017-01-09T01:02:07.753Z,923.28
2017-01-09T01:03:18.772Z,923.27
2017-01-09T01:03:47.091Z,923.24
2017-01-09T01:04:15.237Z,923.26
2017-01-09T01:04:43.318Z,923.25
2017-01-09T01:05:11.567Z,923.27
2017-01-09T01:05:39.842Z,923.27
2017-01-09T01:06:07.847Z,923.26
2017-01-09T01:06:36.252Z,923.28
2017-01-09T01:07:04.589Z,923.3
2017-01-09T01:07:32.954Z,923.29
2017-01-09T01:08:01.194Z,923.3
2017-01-09T01:09:12.493Z,923.31
2017-01-09T01:09:40.630Z,923.32
2017-01-09T01:10:08.768Z,923.28
2017-01-09T01:10:36.857Z,923.31
2017-01-09T01:11:05.108Z,923.28
2017-01-09T01:11:33.194Z,923.3
2017-01-09T01:12:01.376Z,923.27
2017-01-09T01:12:29.580Z,923.31
2017-01-09T01:12:57.642Z,923.29
2017-01-09T01:13:25.824Z,923.29
2017-01-09T01:13:54.162Z,923.3
2017-01-09T01:15:05.555Z,923.3
2017-01-09T01:15:33.687Z,923.27
2017-01-09T01:16:01.921Z,923.29
2017-01-09T01:16:30.102Z,923.27
2017-01-09T01:16:58.352Z,923.28
2017-01-09T01:17:26.337Z,923.25
2017-01-09T01:17:54.424Z,923.24
2017-01-09T01:18:22.535Z,923.23
2017-01-09T01:18:50.875Z,923.21
2017-01-09T01:19:19.155Z,923.21
2017-01-09T01:19:47.389Z,923.21
2017-01-09T01:20:58.784Z,923.21
2017-01-09T01:21:27.018Z,923.19
2017-01-09T01:21:55.253Z,923.16
2017-01-09T01:22:23.434Z,923.16
2017-01-09T01:22:51.784Z,923.14
2017-01-09T01:23:19.870Z,923.13
2017-01-09T01:23:47.998Z,923.12
2017-01-09T01:24:16.119Z,923.13
2017-01-09T01:24:44.092Z,923.14
2017-01-09T01:25:12.799Z,923.13
2017-01-09T01:25:40.944Z,923.11
2017-01-09T01:26:52.337Z,923.11
2017-01-09T01:27:20.653Z,923.08
2017-01-09T01:27:48.796Z,923.08
2017-01-09T01:28:16.891Z,923.12
2017-01-09T01:28:45.233Z,923.12
2017-01-09T01:29:13.511Z,923.15
2017-01-09T01:29:41.793Z,923.14
2017-01-09T01:30:09.998Z,923.12
2017-01-09T01:30:38.241Z,923.16
2017-01-09T01:31:06.612Z,923.12
2017-01-09T01:31:34.853Z,923.1
2017-01-09T01:32:46.148Z,923.13
2017-01-09T01:33:14.371Z,923.13
2017-01-09T01:33:42.514Z,923.19
2017-01-09T01:34:10.603Z,923.15
2017-01-09T01:34:38.857Z,923.15
2017-01-09T01:35:06.938Z,923.17
2017-01-09T01:35:35.133Z,923.14
2017-01-09T01:36:03.251Z,923.16
2017-01-09T01:36:31.591Z,923.21
2017-01-09T01:36:59.783Z,923.22
2017-01-09T01:37:28.023Z,923.22
2017-01-09T01:38:39.317Z,923.19
2017-01-09T01:39:07.542Z,923.16
2017-01-09T01:39:35.770Z,923.16
2017-01-09T01:40:03.951Z,923.19
2017-01-09T01:40:32.104Z,923.17
2017-01-09T01:41:00.293Z,923.17
2017-01-09T01:41:28.405Z,923.18
2017-01-09T01:41:56.525Z,923.2
2017-01-09T01:42:24.761Z,923.17
2017-01-09T01:42:53.133Z,923.18
2017-01-09T01:43:21.397Z,923.18
2017-01-09T01:44:32.505Z,923.19
2017-01-09T01:45:00.825Z,923.23
2017-01-09T01:45:29.067Z,923.24
2017-01-09T01:45:57.149Z,923.21
2017-01-09T01:46:25.213Z,923.2
2017-01-09T01:46:53.393Z,923.17
2017-01-09T01:47:21.497Z,923.18
2017-01-09T01:47:49.701Z,923.18
2017-01-09T01:48:17.851Z,923.2
2017-01-09T01:48:46.137Z,923.21
2017-01-09T01:49:14.382Z,923.23
2017-01-09T01:50:25.766Z,923.18
2017-01-09T01:50:54.083Z,923.21
2017-01-09T01:51:22.319Z,923.23
2017-01-09T01:51:50.404Z,923.23
2017-01-09T01:52:18.950Z,923.19
2017-01-09T01:52:47.218Z,923.24
2017-01-09T01:53:15.308Z,923.23
2017-01-09T01:53:43.602Z,923.25
2017-01-09T01:54:11.834Z,923.25
2017-01-09T01:54:40.200Z,923.22
2017-01-09T01:55:08.255Z,923.21
2017-01-09T01:56:19.642Z,923.24
2017-01-09T01:56:47.774Z,923.22
2017-01-09T01:57:15.914Z,923.23
2017-01-09T01:57:44.185Z,923.24
2017-01-09T01:58:12.247Z,923.18
2017-01-09T01:58:40.613Z,923.2
2017-01-09T01:59:08.716Z,923.21
2017-01-09T01:59:36.638Z,923.19
2017-01-09T02:00:04.792Z,923.2
2017-01-09T02:00:33.057Z,923.21
2017-01-09T02:01:01.387Z,923.21
2017-01-09T02:02:12.588Z,923.19
2017-01-09T02:02:40.807Z,923.13
2017-01-09T02:03:09.038Z,923.14
2017-01-09T02:03:37.321Z,923.15
2017-01-09T02:04:05.571Z,923.13
2017-01-09T02:04:33.842Z,923.11
2017-01-09T02:05:01.753Z,923.1
2017-01-09T02:05:30.043Z,923.08
2017-01-09T02:05:58.281Z,923.07
2017-01-09T02:06:26.649Z,923.06
2017-01-09T02:06:54.979Z,923.07
2017-01-09T02:08:06.087Z,923.05
2017-01-09T02:08:34.464Z,923.01
2017-01-09T02:09:02.788Z,923.01
2017-01-09T02:09:30.965Z,923
2017-01-09T02:09:59.126Z,922.97
2017-01-09T02:10:27.396Z,922.95
2017-01-09T02:10:55.587Z,922.94
2017-01-09T02:11:23.692Z,922.96
2017-01-09T02:11:51.746Z,922.97
2017-01-09T02:12:19.929Z,922.92
2017-01-09T02:12:48.166Z,922.92
2017-01-09T02:13:59.465Z,922.93
2017-01-09T02:14:27.782Z,922.89
2017-01-09T02:14:55.919Z,922.93
2017-01-09T02:15:23.915Z,922.86
2017-01-09T02:15:52.062Z,922.88
2017-01-09T02:16:20.239Z,922.88
2017-01-09T02:16:48.433Z,922.87
2017-01-09T02:17:16.534Z,922.9
2017-01-09T02:17:44.770Z,922.82
2017-01-09T02:18:13.143Z,922.9
2017-01-09T02:18:41.289Z,922.85
2017-01-09T02:19:52.585Z,922.87
2017-01-09T02:20:20.809Z,922.85
2017-01-09T02:20:48.950Z,922.86
2017-01-09T02:21:17.059Z,922.83
2017-01-09T02:21:45.403Z,922.85
2017-01-09T02:22:13.675Z,922.82
2017-01-09T02:22:41.870Z,922.83
2017-01-09T02:23:09.978Z,922.86
2017-01-09T02:23:38.126Z,922.87
2017-01-09T02:24:06.313Z,922.88
2017-01-09T02:24:34.555Z,922.85
2017-01-09T02:25:45.758Z,922.85
2017-01-09T02:26:14.074Z,922.84
2017-01-09T02:26:42.310Z,922.84
2017-01-09T02:27:10.493Z,922.86
2017-01-09T02:27:38.744Z,922.84
2017-01-09T02:28:07.020Z,922.85
2017-01-09T02:28:35.212Z,922.84
2017-01-09T02:29:03.325Z,922.83
2017-01-09T02:29:31.574Z,922.84
2017-01-09T02:30:00.292Z,922.84
2017-01-09T02:30:28.528Z,922.84
2017-01-09T02:31:39.821Z,922.85
2017-01-09T02:32:08.045Z,922.84
2017-01-09T02:32:36.092Z,922.82
2017-01-09T02:33:04.270Z,922.85
2017-01-09T02:33:32.425Z,922.88
2017-01-09T02:34:00.601Z,922.88
2017-01-09T02:34:28.692Z,922.9
2017-01-09T02:34:56.899Z,922.81
2017-01-09T02:35:25.226Z,922.83
2017-01-09T02:35:53.305Z,922.82
2017-01-09T02:36:21.449Z,922.81
2017-01-09T02:37:32.741Z,922.84
2017-01-09T02:38:00.960Z,922.86
2017-01-09T02:38:29.199Z,922.85
2017-01-09T02:38:57.192Z,922.82
2017-01-09T02:39:25.444Z,922.81
2017-01-09T02:39:53.613Z,922.8
2017-01-09T02:40:21.796Z,922.78
2017-01-09T02:40:50.004Z,922.78
2017-01-09T02:41:18.242Z,922.82
2017-01-09T02:41:46.433Z,922.8
2017-01-09T02:42:14.575Z,922.81
2017-01-09T02:43:25.869Z,922.84
2017-01-09T02:43:54.190Z,922.88
2017-01-09T02:44:22.240Z,922.86
2017-01-09T02:44:50.423Z,922.86
2017-01-09T02:45:18.671Z,922.87
2017-01-09T02:45:46.941Z,922.86
2017-01-09T02:46:15.045Z,922.89
2017-01-09T02:46:43.240Z,922.85
2017-01-09T02:47:11.475Z,922.84
2017-01-09T02:47:39.751Z,922.82
2017-01-09T02:48:08.090Z,922.84
2017-01-09T02:49:19.383Z,922.82
2017-01-09T02:49:47.513Z,922.74
2017-01-09T02:50:15.659Z,922.76
2017-01-09T02:50:43.836Z,922.71
2017-01-09T02:51:11.993Z,922.68
2017-01-09T02:51:40.080Z,922.7
2017-01-09T02:52:08.269Z,922.66
2017-01-09T02:52:36.465Z,922.71
2017-01-09T02:53:04.706Z,922.67
2017-01-09T02:53:32.887Z,922.68
2017-01-09T02:54:01.596Z,922.66
2017-01-09T02:55:12.892Z,922.66
2017-01-09T02:55:41.115Z,922.67
2017-01-09T02:56:09.250Z,922.67
2017-01-09T02:56:37.244Z,922.68
2017-01-09T02:57:05.497Z,922.68
2017-01-09T02:57:33.856Z,922.68
2017-01-09T02:58:01.960Z,922.7
2017-01-09T02:58:30.066Z,922.68
2017-01-09T02:58:58.117Z,922.7
2017-01-09T02:59:26.389Z,922.69
2017-01-09T02:59:54.725Z,922.7
2017-01-09T03:01:05.943Z,922.73
2017-01-09T03:01:34.070Z,922.69
2017-01-09T03:02:02.207Z,922.68
2017-01-09T03:02:30.201Z,922.73
2017-01-09T03:02:58.453Z,922.72
2017-01-09T03:03:26.536Z,922.72
2017-01-09T03:03:54.623Z,922.74
2017-01-09T03:04:22.826Z,922.7
2017-01-09T03:04:50.974Z,922.7
2017-01-09T03:05:19.151Z,922.69
2017-01-09T03:05:47.389Z,922.7
2017-01-09T03:06:58.680Z,922.7
2017-01-09T03:07:27.000Z,922.65
2017-01-09T03:07:55.331Z,922.68
2017-01-09T03:08:23.520Z,922.67
2017-01-09T03:08:51.667Z,922.61
2017-01-09T03:09:19.942Z,922.62
2017-01-09T03:09:48.130Z,922.67
2017-01-09T03:10:16.244Z,922.68
2017-01-09T03:10:44.394Z,922.65
2017-01-09T03:11:12.474Z,922.65
2017-01-09T03:11:40.957Z,922.63
2017-01-09T03:12:52.253Z,922.64
2017-01-09T03:13:20.382Z,922.63
2017-01-09T03:13:48.519Z,922.62
2017-01-09T03:14:16.608Z,922.59
2017-01-09T03:14:44.759Z,922.56
2017-01-09T03:15:13.016Z,922.58
2017-01-09T03:15:41.058Z,922.56
2017-01-09T03:16:09.267Z,922.56
2017-01-09T03:16:37.411Z,922.53
2017-01-09T03:17:05.668Z,922.56
2017-01-09T03:17:33.903Z,922.49
2017-01-09T03:18:45.010Z,922.47
2017-01-09T03:19:13.047Z,922.48
2017-01-09T03:19:41.280Z,922.46
2017-01-09T03:20:09.459Z,922.47
2017-01-09T03:20:37.711Z,922.46
2017-01-09T03:21:05.889Z,922.41
2017-01-09T03:21:33.978Z,922.39
2017-01-09T03:22:01.993Z,922.41
2017-01-09T03:22:30.138Z,922.36
2017-01-09T03:22:58.302Z,922.36
2017-01-09T03:23:26.447Z,922.34
2017-01-09T03:24:37.736Z,922.37
2017-01-09T03:25:05.586Z,922.32
2017-01-09T03:25:33.814Z,922.35
2017-01-09T03:26:01.988Z,922.3
2017-01-09T03:26:30.047Z,922.28
2017-01-09T03:26:58.307Z,922.29
2017-01-09T03:27:26.209Z,922.28
2017-01-09T03:27:54.409Z,922.28
2017-01-09T03:28:22.551Z,922.24
2017-01-09T03:28:50.804Z,922.25
2017-01-09T03:29:18.948Z,922.28
2017-01-09T03:30:30.057Z,922.22
2017-01-09T03:30:58.100Z,922.23
2017-01-09T03:31:26.082Z,922.23
2017-01-09T03:31:53.975Z,922.24
2017-01-09T03:32:22.037Z,922.2
2017-01-09T03:32:50.198Z,922.19
2017-01-09T03:33:18.279Z,922.22
2017-01-09T03:33:46.286Z,922.24
2017-01-09T03:34:14.429Z,922.21
2017-01-09T03:34:42.678Z,922.25
2017-01-09T03:35:10.639Z,922.21
2017-01-09T03:36:21.743Z,922.22
2017-01-09T03:36:49.872Z,922.24
2017-01-09T03:37:18.366Z,922.23
2017-01-09T03:37:46.686Z,922.25
2017-01-09T03:38:14.840Z,922.25
2017-01-09T03:38:43.091Z,922.25
2017-01-09T03:39:11.257Z,922.29
2017-01-09T03:39:39.445Z,922.26
2017-01-09T03:40:07.296Z,922.24
2017-01-09T03:40:35.546Z,922.28
2017-01-09T03:41:03.784Z,922.25
2017-01-09T03:42:14.796Z,922.25
2017-01-09T03:42:43.017Z,922.27
2017-01-09T03:43:11.063Z,922.3
2017-01-09T03:43:39.145Z,922.26
2017-01-09T03:44:07.204Z,922.3
2017-01-09T03:44:35.367Z,922.29
2017-01-09T03:45:03.443Z,922.29
2017-01-09T03:45:31.545Z,922.32
2017-01-09T03:45:59.591Z,922.3
2017-01-09T03:46:27.758Z,922.3
2017-01-09T03:46:56.093Z,922.28
2017-01-09T03:48:07.229Z,922.29
2017-01-09T03:48:35.263Z,922.31
2017-01-09T03:49:03.402Z,922.3
2017-01-09T03:49:31.394Z,922.26
2017-01-09T03:49:59.639Z,922.28
2017-01-09T03:50:27.714Z,922.29
2017-01-09T03:50:55.700Z,922.27
2017-01-09T03:51:23.610Z,922.27
2017-01-09T03:51:51.739Z,922.29
2017-01-09T03:52:19.791Z,922.25
2017-01-09T03:52:48.024Z,922.28
2017-01-09T03:53:59.216Z,922.25
2017-01-09T03:54:27.344Z,922.25
2017-01-09T03:54:55.577Z,922.22
2017-01-09T03:55:23.564Z,922.21
2017-01-09T03:55:51.809Z,922.19
2017-01-09T03:56:19.787Z,922.19
2017-01-09T03:56:47.871Z,922.19
2017-01-09T03:57:15.974Z,922.16
2017-01-09T03:57:43.919Z,922.17
2017-01-09T03:58:12.173Z,922.13
2017-01-09T03:58:40.319Z,922.15
2017-01-09T03:59:51.518Z,922.14
2017-01-09T04:00:19.650Z,922.08
2017-01-09T04:00:47.788Z,922.1
2017-01-09T04:01:15.778Z,922.09
2017-01-09T04:01:43.931Z,922.08
2017-01-09T04:02:12.094Z,922.05
2017-01-09T04:02:40.179Z,922.08
2017-01-09T04:03:08.364Z,922.07
2017-01-09T04:03:36.679Z,922.1
2017-01-09T04:04:04.827Z,922.03
2017-01-09T04:04:33.066Z,922.06
2017-01-09T04:05:44.415Z,922.02
2017-01-09T04:06:12.569Z,921.98
2017-01-09T04:06:40.610Z,921.97
2017-01-09T04:07:08.783Z,921.98
2017-01-09T04:07:36.939Z,921.99
2017-01-09T04:08:05.192Z,921.98
2017-01-09T04:08:33.459Z,921.98
2017-01-09T04:09:01.460Z,921.99
2017-01-09T04:09:29.684Z,921.97
2017-01-09T04:09:57.858Z,921.96
2017-01-09T04:10:26.000Z,921.96
2017-01-09T04:11:37.199Z,921.93
2017-01-09T04:12:05.421Z,921.92
2017-01-09T04:12:33.560Z,921.94
2017-01-09T04:13:01.739Z,921.94
2017-01-09T04:13:29.896Z,921.96
2017-01-09T04:13:58.151Z,921.93
2017-01-09T04:14:26.230Z,921.91
2017-01-09T04:14:54.325Z,921.96
2017-01-09T04:15:22.639Z,921.93
2017-01-09T04:15:50.700Z,921.96
2017-01-09T04:16:19.033Z,921.94
2017-01-09T04:17:30.230Z,921.97
2017-01-09T04:17:58.451Z,921.9
2017-01-09T04:18:26.682Z,921.89
2017-01-09T04:18:54.954Z,921.9
2017-01-09T04:19:23.207Z,921.9
2017-01-09T04:19:51.459Z,921.91
2017-01-09T04:20:19.541Z,921.92
2017-01-09T04:20:47.727Z,921.9
2017-01-09T04:21:15.771Z,921.85
2017-01-09T04:21:44.106Z,921.87
2017-01-09T04:22:12.343Z,921.86
2017-01-09T04:23:23.636Z,921.85
2017-01-09T04:23:51.862Z,921.85
2017-01-09T04:24:19.815Z,921.83
2017-01-09T04:24:47.897Z,921.86
2017-01-09T04:25:16.154Z,921.84
2017-01-09T04:25:44.309Z,921.83
2017-01-09T04:26:12.388Z,921.84
2017-01-09T04:26:40.478Z,921.84
2017-01-09T04:27:08.706Z,921.85
2017-01-09T04:27:36.669Z,921.86
2017-01-09T04:28:04.810Z,921.85
2017-01-09T04:29:16.105Z,921.84
2017-01-09T04:29:44.328Z,921.85
2017-01-09T04:30:12.468Z,921.81
2017-01-09T04:30:40.456Z,921.79
2017-01-09T04:31:08.700Z,921.81
2017-01-09T04:31:36.945Z,921.77
2017-01-09T04:32:04.935Z,921.8
2017-01-09T04:32:33.212Z,921.77
2017-01-09T04:33:01.346Z,921.78
2017-01-09T04:33:29.589Z,921.79
2017-01-09T04:33:57.639Z,921.78
2017-01-09T04:35:08.933Z,921.76
2017-01-09T04:35:37.263Z,921.77
2017-01-09T04:36:05.400Z,921.75
2017-01-09T04:36:33.487Z,921.74
2017-01-09T04:37:01.734Z,921.76
2017-01-09T04:37:29.891Z,921.75
2017-01-09T04:37:57.973Z,921.76
2017-01-09T04:38:26.063Z,921.77
2017-01-09T04:38:54.196Z,921.78
2017-01-09T04:39:22.373Z,921.77
2017-01-09T04:39:50.700Z,921.77
2017-01-09T04:41:01.997Z,921.76
2017-01-09T04:41:30.313Z,921.79
2017-01-09T04:41:58.450Z,921.77
2017-01-09T04:42:26.533Z,921.77
2017-01-09T04:42:54.780Z,921.72
2017-01-09T04:43:23.038Z,921.69
2017-01-09T04:43:51.024Z,921.74
2017-01-09T04:44:19.216Z,921.71
2017-01-09T04:44:47.533Z,921.72
2017-01-09T04:45:15.778Z,921.71
2017-01-09T04:45:43.830Z,921.68
2017-01-09T04:46:55.025Z,921.69
2017-01-09T04:47:22.970Z,921.65
2017-01-09T04:47:51.112Z,921.66
2017-01-09T04:48:19.288Z,921.64
2017-01-09T04:48:47.631Z,921.63
2017-01-09T04:49:15.880Z,921.62
2017-01-09T04:49:43.964Z,921.63
2017-01-09T04:50:12.148Z,921.64
2017-01-09T04:50:40.374Z,921.62
2017-01-09T04:51:08.621Z,921.58
2017-01-09T04:51:36.764Z,921.6
2017-01-09T04:52:47.867Z,921.59
2017-01-09T04:53:15.994Z,921.56
2017-01-09T04:53:44.129Z,921.58
2017-01-09T04:54:12.025Z,921.57
2017-01-09T04:54:40.272Z,921.55
2017-01-09T04:55:08.247Z,921.53
2017-01-09T04:55:36.327Z,921.56
2017-01-09T04:56:04.605Z,921.55
2017-01-09T04:56:32.835Z,921.5
2017-01-09T04:57:00.989Z,921.49
2017-01-09T04:57:29.134Z,921.49
2017-01-09T04:58:40.429Z,921.47
2017-01-09T04:59:08.463Z,921.45
2017-01-09T04:59:36.696Z,921.46
2017-01-09T05:00:04.965Z,921.44
2017-01-09T05:00:33.213Z,921.46
2017-01-09T05:01:01.379Z,921.42
2017-01-09T05:01:29.647Z,921.44
2017-01-09T05:01:57.835Z,921.45
2017-01-09T05:02:25.972Z,921.42
2017-01-09T05:02:54.122Z,921.43
2017-01-09T05:03:22.355Z,921.4
2017-01-09T05:04:33.465Z,921.41
2017-01-09T05:05:01.595Z,921.4
2017-01-09T05:05:29.914Z,921.41
2017-01-09T05:05:58.092Z,921.37
2017-01-09T05:06:26.254Z,921.37
2017-01-09T05:06:54.505Z,921.39
2017-01-09T05:07:22.681Z,921.42
2017-01-09T05:07:50.959Z,921.38
2017-01-09T05:08:19.002Z,921.38
2017-01-09T05:08:47.335Z,921.39
2017-01-09T05:09:15.478Z,921.34
2017-01-09T05:10:26.937Z,921.39
2017-01-09T05:10:54.987Z,921.31
2017-01-09T05:11:23.139Z,921.29
2017-01-09T05:11:51.220Z,921.3
2017-01-09T05:12:19.185Z,921.31
2017-01-09T05:12:47.435Z,921.28
2017-01-09T05:13:15.326Z,921.24
2017-01-09T05:13:43.512Z,921.24
2017-01-09T05:14:11.735Z,921.23
2017-01-09T05:14:39.981Z,921.21
2017-01-09T05:15:08.220Z,921.23
2017-01-09T05:16:19.514Z,921.21
2017-01-09T05:16:47.645Z,921.21
2017-01-09T05:17:15.779Z,921.22
2017-01-09T05:17:43.959Z,921.22
2017-01-09T05:18:12.023Z,921.19
2017-01-09T05:18:40.266Z,921.19
2017-01-09T05:19:08.436Z,921.23
2017-01-09T05:19:36.719Z,921.22
2017-01-09T05:20:04.943Z,921.22
2017-01-09T05:20:33.090Z,921.2
2017-01-09T05:21:01.143Z,921.21
2017-01-09T05:22:12.345Z,921.21
2017-01-09T05:22:40.472Z,921.23
2017-01-09T05:23:08.617Z,921.24
2017-01-09T05:23:36.796Z,921.22
2017-01-09T05:24:04.947Z,921.21
2017-01-09T05:24:33.110Z,921.23
2017-01-09T05:25:01.192Z,921.21
2017-01-09T05:25:29.473Z,921.23
2017-01-09T05:25:57.604Z,921.22
2017-01-09T05:26:25.849Z,921.18
2017-01-09T05:26:54.091Z,921.19
2017-01-09T05:28:05.288Z,921.19
2017-01-09T05:28:33.509Z,921.16
2017-01-09T05:29:01.556Z,921.16
2017-01-09T05:29:29.734Z,921.19
2017-01-09T05:29:57.889Z,921.16
2017-01-09T05:30:26.138Z,921.16
2017-01-09T05:30:53.933Z,921.15
2017-01-09T05:31:22.027Z,921.13
2017-01-09T05:31:50.067Z,921.15
2017-01-09T05:32:18.212Z,921.15
2017-01-09T05:32:46.448Z,921.13
2017-01-09T05:33:57.367Z,921.16
2017-01-09T05:34:25.492Z,921.17
2017-01-09T05:34:53.723Z,921.18
2017-01-09T05:35:21.806Z,921.14
2017-01-09T05:35:50.149Z,921.2
2017-01-09T05:36:18.496Z,921.19
2017-01-09T05:36:46.668Z,921.18
2017-01-09T05:37:14.945Z,921.2
2017-01-09T05:37:43.169Z,921.19
2017-01-09T05:38:11.413Z,921.19
2017-01-09T05:38:39.464Z,921.21
2017-01-09T05:39:50.664Z,921.16
2017-01-09T05:40:18.789Z,921.22
2017-01-09T05:40:46.932Z,921.2
2017-01-09T05:41:15.015Z,921.19
2017-01-09T05:41:43.168Z,921.14
2017-01-09T05:42:11.236Z,921.15
2017-01-09T05:42:39.503Z,921.13
2017-01-09T05:43:07.786Z,921.14
2017-01-09T05:43:35.821Z,921.17
2017-01-09T05:44:03.973Z,921.14
2017-01-09T05:44:32.117Z,921.15
2017-01-09T05:45:43.413Z,921.13
2017-01-09T05:46:11.538Z,921.13
2017-01-09T05:46:39.583Z,921.11
2017-01-09T05:47:07.670Z,921.09
2017-01-09T05:47:35.920Z,921.14
2017-01-09T05:48:04.170Z,921.1
2017-01-09T05:48:32.249Z,921.1
2017-01-09T05:49:00.431Z,921.05
2017-01-09T05:49:28.655Z,921.11
2017-01-09T05:49:56.622Z,921.1
2017-01-09T05:50:24.762Z,921.11
2017-01-09T05:51:36.059Z,921.14
2017-01-09T05:52:04.372Z,921.11
2017-01-09T05:52:32.699Z,921.1
2017-01-09T05:53:00.877Z,921.14
2017-01-09T05:53:29.124Z,921.11
2017-01-09T05:53:57.371Z,921.14
2017-01-09T05:54:25.476Z,921.16
2017-01-09T05:54:53.575Z,921.17
2017-01-09T05:55:21.516Z,921.15
2017-01-09T05:55:49.758Z,921.2
2017-01-09T05:56:18.091Z,921.2
2017-01-09T05:57:29.110Z,921.21
2017-01-09T05:57:57.423Z,921.25
2017-01-09T05:58:25.563Z,921.2
2017-01-09T05:58:53.560Z,921.2
2017-01-09T05:59:21.904Z,921.24
2017-01-09T05:59:50.251Z,921.24
2017-01-09T06:00:18.251Z,921.26
2017-01-09T06:00:46.437Z,921.22
2017-01-09T06:01:14.662Z,921.22
2017-01-09T06:01:43.002Z,921.23
2017-01-09T06:02:11.244Z,921.25
2017-01-09T06:03:22.536Z,921.23
2017-01-09T06:03:50.673Z,921.2
2017-01-09T06:04:18.912Z,921.21
2017-01-09T06:04:47.092Z,921.22
2017-01-09T06:05:15.434Z,921.21
2017-01-09T06:05:43.687Z,921.2
2017-01-09T06:06:11.863Z,921.18
2017-01-09T06:06:40.148Z,921.21
2017-01-09T06:07:08.198Z,921.16
2017-01-09T06:07:36.446Z,921.18
2017-01-09T06:08:04.776Z,921.18
2017-01-09T06:09:15.973Z,921.2
2017-01-09T06:09:44.289Z,921.16
2017-01-09T06:10:12.434Z,921.19
2017-01-09T06:10:40.443Z,921.16
2017-01-09T06:11:08.787Z,921.17
2017-01-09T06:11:36.964Z,921.2
2017-01-09T06:12:05.230Z,921.2
2017-01-09T06:12:33.323Z,921.21
2017-01-09T06:13:01.465Z,921.18
2017-01-09T06:13:29.805Z,921.2
2017-01-09T06:13:57.950Z,921.2
2017-01-09T06:15:09.246Z,921.22
2017-01-09T06:15:37.473Z,921.25
2017-01-09T06:16:05.712Z,921.23
2017-01-09T06:16:33.890Z,921.28
2017-01-09T06:17:02.046Z,921.24
2017-01-09T06:17:30.296Z,921.26
2017-01-09T06:17:58.468Z,921.24
2017-01-09T06:18:26.750Z,921.23
2017-01-09T06:18:54.982Z,921.24
2017-01-09T06:19:23.317Z,921.23
2017-01-09T06:19:51.646Z,921.23
2017-01-09T06:21:02.851Z,921.24
2017-01-09T06:21:31.171Z,921.23
2017-01-09T06:21:59.309Z,921.2
2017-01-09T06:22:27.489Z,921.21
2017-01-09T06:22:55.577Z,921.24
2017-01-09T06:23:23.929Z,921.22
2017-01-09T06:23:52.006Z,921.22
2017-01-09T06:24:20.202Z,921.24
2017-01-09T06:24:48.337Z,921.21
2017-01-09T06:25:16.580Z,921.22
2017-01-09T06:25:44.912Z,921.25
2017-01-09T06:26:56.114Z,921.27
2017-01-09T06:27:24.152Z,921.31
2017-01-09T06:27:52.476Z,921.29
2017-01-09T06:28:20.473Z,921.27
2017-01-09T06:28:48.819Z,921.28
2017-01-09T06:29:16.888Z,921.25
2017-01-09T06:29:44.785Z,921.28
2017-01-09T06:30:13.074Z,921.27
2017-01-09T06:30:41.200Z,921.29
2017-01-09T06:31:09.443Z,921.25
2017-01-09T06:31:37.780Z,921.25
2017-01-09T06:32:49.078Z,921.24
2017-01-09T06:33:17.397Z,921.24
2017-01-09T06:33:45.638Z,921.26
2017-01-09T06:34:13.913Z,921.25
2017-01-09T06:34:41.972Z,921.27
2017-01-09T06:35:10.224Z,921.28
2017-01-09T06:35:38.217Z,921.26
2017-01-09T06:36:06.309Z,921.28
2017-01-09T06:36:34.444Z,921.3
2017-01-09T06:37:02.695Z,921.3
2017-01-09T06:37:30.845Z,921.28
2017-01-09T06:38:42.047Z,921.28
2017-01-09T06:39:10.368Z,921.28
2017-01-09T06:39:38.605Z,921.26
2017-01-09T06:40:06.781Z,921.28
2017-01-09T06:40:34.941Z,921.28
2017-01-09T06:41:03.198Z,921.24
2017-01-09T06:41:31.092Z,921.27
2017-01-09T06:41:59.370Z,921.3